sensor_id;sensor_type;location;lat;lon;timestamp;P1;durP1;ratioP1;P2;durP2;ratioP2
4377;SDS011;2203;53.686;9.994;2022-09-17T00:01:52;57.57;;;5.60;;
4377;SDS011;2203;53.686;9.994;2022-09-17T00:04:17;29.33;;;5.40;;
4377;SDS011;2203;53.686;9.994;2022-09-17T00:06:43;34.93;;;4.57;;
4377;SDS011;2203;53.686;9.994;2022-09-17T00:09:08;41.87;;;5.40;;
4377;SDS011;2203;53.686;9.994;2022-09-17T00:11:35;32.50;;;4.83;;
4377;SDS011;2203;53.686;9.994;2022-09-17T00:14:03;30.43;;;4.43;;
4377;SDS011;2203;53.686;9.994;2022-09-17T00:18:59;36.63;;;4.60;;
4377;SDS011;2203;53.686;9.994;2022-09-17T00:21:26;35.30;;;4.60;;
4377;SDS011;2203;53.686;9.994;2022-09-17T00:23:52;37.23;;;5.10;;
4377;SDS011;2203;53.686;9.994;2022-09-17T00:26:19;43.63;;;4.97;;
4377;SDS011;2203;53.686;9.994;2022-09-17T00:28:47;32.10;;;4.60;;
4377;SDS011;2203;53.686;9.994;2022-09-17T00:31:14;33.70;;;4.67;;
4377;SDS011;2203;53.686;9.994;2022-09-17T00:33:39;35.60;;;4.97;;
4377;SDS011;2203;53.686;9.994;2022-09-17T00:36:05;31.93;;;4.17;;
4377;SDS011;2203;53.686;9.994;2022-09-17T00:38:31;31.00;;;5.67;;
4377;SDS011;2203;53.686;9.994;2022-09-17T00:40:57;23.60;;;4.27;;
4377;SDS011;2203;53.686;9.994;2022-09-17T00:45:58;34.17;;;3.70;;
4377;SDS011;2203;53.686;9.994;2022-09-17T00:48:24;23.07;;;3.50;;
4377;SDS011;2203;53.686;9.994;2022-09-17T00:50:49;19.83;;;4.40;;
4377;SDS011;2203;53.686;9.994;2022-09-17T00:53:17;35.80;;;4.50;;
4377;SDS011;2203;53.686;9.994;2022-09-17T00:58:50;29.10;;;4.40;;
4377;SDS011;2203;53.686;9.994;2022-09-17T01:01:16;34.87;;;5.67;;
4377;SDS011;2203;53.686;9.994;2022-09-17T01:03:42;41.30;;;5.10;;
4377;SDS011;2203;53.686;9.994;2022-09-17T01:17:23;34.07;;;4.20;;
4377;SDS011;2203;53.686;9.994;2022-09-17T01:22:58;44.10;;;6.13;;
4377;SDS011;2203;53.686;9.994;2022-09-17T01:34:19;38.80;;;3.70;;
4377;SDS011;2203;53.686;9.994;2022-09-17T01:42:14;24.67;;;4.30;;
4377;SDS011;2203;53.686;9.994;2022-09-17T01:44:52;34.77;;;4.23;;
4377;SDS011;2203;53.686;9.994;2022-09-17T01:49:47;30.43;;;3.53;;
4377;SDS011;2203;53.686;9.994;2022-09-17T01:52:15;25.37;;;3.40;;
4377;SDS011;2203;53.686;9.994;2022-09-17T01:54:43;31.77;;;5.30;;
4377;SDS011;2203;53.686;9.994;2022-09-17T01:59:42;31.53;;;3.83;;
4377;SDS011;2203;53.686;9.994;2022-09-17T02:02:13;41.47;;;3.60;;
4377;SDS011;2203;53.686;9.994;2022-09-17T02:04:54;34.03;;;4.80;;
4377;SDS011;2203;53.686;9.994;2022-09-17T02:07:23;18.07;;;3.77;;
4377;SDS011;2203;53.686;9.994;2022-09-17T02:09:58;32.63;;;5.10;;
4377;SDS011;2203;53.686;9.994;2022-09-17T02:12:45;38.90;;;4.50;;
4377;SDS011;2203;53.686;9.994;2022-09-17T02:15:15;28.93;;;3.93;;
4377;SDS011;2203;53.686;9.994;2022-09-17T02:17:48;26.67;;;3.70;;
4377;SDS011;2203;53.686;9.994;2022-09-17T02:20:16;34.17;;;5.07;;
4377;SDS011;2203;53.686;9.994;2022-09-17T02:22:43;23.53;;;3.63;;
4377;SDS011;2203;53.686;9.994;2022-09-17T02:30:27;19.00;;;3.27;;
4377;SDS011;2203;53.686;9.994;2022-09-17T02:32:52;30.37;;;3.00;;
4377;SDS011;2203;53.686;9.994;2022-09-17T02:35:18;29.73;;;3.60;;
4377;SDS011;2203;53.686;9.994;2022-09-17T02:37:44;25.20;;;4.47;;
4377;SDS011;2203;53.686;9.994;2022-09-17T02:40:10;33.53;;;5.57;;
4377;SDS011;2203;53.686;9.994;2022-09-17T02:43:01;26.80;;;3.73;;
4377;SDS011;2203;53.686;9.994;2022-09-17T02:50:49;20.30;;;2.90;;
4377;SDS011;2203;53.686;9.994;2022-09-17T02:53:26;32.70;;;3.50;;
4377;SDS011;2203;53.686;9.994;2022-09-17T02:56:08;29.20;;;3.37;;
4377;SDS011;2203;53.686;9.994;2022-09-17T02:58:45;27.53;;;3.63;;
4377;SDS011;2203;53.686;9.994;2022-09-17T03:02:01;27.87;;;5.90;;
4377;SDS011;2203;53.686;9.994;2022-09-17T03:04:08;30.20;;;4.07;;
4377;SDS011;2203;53.686;9.994;2022-09-17T03:06:35;33.20;;;4.20;;
4377;SDS011;2203;53.686;9.994;2022-09-17T03:09:02;39.83;;;3.80;;
4377;SDS011;2203;53.686;9.994;2022-09-17T03:11:28;31.73;;;6.20;;
4377;SDS011;2203;53.686;9.994;2022-09-17T03:13:53;18.53;;;4.07;;
4377;SDS011;2203;53.686;9.994;2022-09-17T03:16:18;27.33;;;3.73;;
4377;SDS011;2203;53.686;9.994;2022-09-17T03:18:44;33.40;;;3.10;;
4377;SDS011;2203;53.686;9.994;2022-09-17T03:21:09;25.77;;;4.50;;
4377;SDS011;2203;53.686;9.994;2022-09-17T03:23:36;28.63;;;3.80;;
4377;SDS011;2203;53.686;9.994;2022-09-17T03:26:02;25.70;;;4.47;;
4377;SDS011;2203;53.686;9.994;2022-09-17T03:28:27;31.37;;;3.83;;
4377;SDS011;2203;53.686;9.994;2022-09-17T03:30:53;30.53;;;4.70;;
4377;SDS011;2203;53.686;9.994;2022-09-17T03:33:18;32.23;;;4.30;;
4377;SDS011;2203;53.686;9.994;2022-09-17T03:35:44;22.27;;;3.27;;
4377;SDS011;2203;53.686;9.994;2022-09-17T03:38:10;33.03;;;4.20;;
4377;SDS011;2203;53.686;9.994;2022-09-17T03:40:35;29.97;;;4.03;;
4377;SDS011;2203;53.686;9.994;2022-09-17T03:43:01;40.87;;;3.77;;
4377;SDS011;2203;53.686;9.994;2022-09-17T03:45:26;27.33;;;3.60;;
4377;SDS011;2203;53.686;9.994;2022-09-17T03:47:52;24.37;;;3.73;;
4377;SDS011;2203;53.686;9.994;2022-09-17T03:50:17;23.90;;;3.40;;
4377;SDS011;2203;53.686;9.994;2022-09-17T03:52:42;25.23;;;3.40;;
4377;SDS011;2203;53.686;9.994;2022-09-17T03:55:08;19.13;;;3.10;;
4377;SDS011;2203;53.686;9.994;2022-09-17T03:57:35;17.43;;;2.80;;
4377;SDS011;2203;53.686;9.994;2022-09-17T04:00:00;25.03;;;3.63;;
4377;SDS011;2203;53.686;9.994;2022-09-17T04:02:26;24.03;;;4.63;;
4377;SDS011;2203;53.686;9.994;2022-09-17T04:04:51;27.50;;;3.47;;
4377;SDS011;2203;53.686;9.994;2022-09-17T04:07:18;29.00;;;3.40;;
4377;SDS011;2203;53.686;9.994;2022-09-17T04:09:43;24.00;;;3.07;;
4377;SDS011;2203;53.686;9.994;2022-09-17T04:12:08;23.33;;;3.60;;
4377;SDS011;2203;53.686;9.994;2022-09-17T04:14:34;27.00;;;3.93;;
4377;SDS011;2203;53.686;9.994;2022-09-17T04:16:59;25.20;;;3.33;;
4377;SDS011;2203;53.686;9.994;2022-09-17T04:19:25;24.40;;;3.50;;
4377;SDS011;2203;53.686;9.994;2022-09-17T04:21:50;27.40;;;3.57;;
4377;SDS011;2203;53.686;9.994;2022-09-17T04:24:17;21.80;;;3.00;;
4377;SDS011;2203;53.686;9.994;2022-09-17T04:26:42;19.43;;;2.83;;
4377;SDS011;2203;53.686;9.994;2022-09-17T04:29:07;21.47;;;3.03;;
4377;SDS011;2203;53.686;9.994;2022-09-17T04:31:34;22.27;;;3.23;;
4377;SDS011;2203;53.686;9.994;2022-09-17T04:33:59;19.00;;;4.17;;
4377;SDS011;2203;53.686;9.994;2022-09-17T04:36:24;20.60;;;2.80;;
4377;SDS011;2203;53.686;9.994;2022-09-17T04:38:50;16.53;;;2.37;;
4377;SDS011;2203;53.686;9.994;2022-09-17T04:41:15;22.73;;;3.87;;
4377;SDS011;2203;53.686;9.994;2022-09-17T04:43:41;26.73;;;4.27;;
4377;SDS011;2203;53.686;9.994;2022-09-17T04:46:06;32.97;;;4.67;;
4377;SDS011;2203;53.686;9.994;2022-09-17T04:48:31;26.17;;;4.47;;
4377;SDS011;2203;53.686;9.994;2022-09-17T04:50:57;20.43;;;3.90;;
4377;SDS011;2203;53.686;9.994;2022-09-17T04:53:23;17.33;;;3.30;;
4377;SDS011;2203;53.686;9.994;2022-09-17T04:55:48;29.53;;;3.70;;
4377;SDS011;2203;53.686;9.994;2022-09-17T04:58:14;19.70;;;4.30;;
4377;SDS011;2203;53.686;9.994;2022-09-17T05:00:39;22.93;;;3.60;;
4377;SDS011;2203;53.686;9.994;2022-09-17T05:03:06;32.27;;;4.20;;
4377;SDS011;2203;53.686;9.994;2022-09-17T05:05:31;20.97;;;4.13;;
4377;SDS011;2203;53.686;9.994;2022-09-17T05:07:57;22.33;;;3.50;;
4377;SDS011;2203;53.686;9.994;2022-09-17T05:10:22;14.87;;;2.97;;
4377;SDS011;2203;53.686;9.994;2022-09-17T05:12:51;24.47;;;3.40;;
4377;SDS011;2203;53.686;9.994;2022-09-17T05:15:18;21.63;;;3.53;;
4377;SDS011;2203;53.686;9.994;2022-09-17T05:17:44;33.37;;;4.23;;
4377;SDS011;2203;53.686;9.994;2022-09-17T05:20:10;21.77;;;4.23;;
4377;SDS011;2203;53.686;9.994;2022-09-17T05:22:40;38.20;;;3.83;;
4377;SDS011;2203;53.686;9.994;2022-09-17T05:25:07;16.50;;;3.30;;
4377;SDS011;2203;53.686;9.994;2022-09-17T05:27:32;22.90;;;3.20;;
4377;SDS011;2203;53.686;9.994;2022-09-17T05:29:58;27.20;;;3.60;;
4377;SDS011;2203;53.686;9.994;2022-09-17T05:32:23;27.80;;;3.03;;
4377;SDS011;2203;53.686;9.994;2022-09-17T05:34:48;23.03;;;3.40;;
4377;SDS011;2203;53.686;9.994;2022-09-17T05:37:14;28.50;;;3.97;;
4377;SDS011;2203;53.686;9.994;2022-09-17T05:39:39;28.13;;;3.77;;
4377;SDS011;2203;53.686;9.994;2022-09-17T05:42:05;18.90;;;2.63;;
4377;SDS011;2203;53.686;9.994;2022-09-17T05:44:30;23.90;;;2.90;;
4377;SDS011;2203;53.686;9.994;2022-09-17T05:46:55;25.10;;;2.93;;
4377;SDS011;2203;53.686;9.994;2022-09-17T05:49:21;20.37;;;2.93;;
4377;SDS011;2203;53.686;9.994;2022-09-17T05:51:48;27.20;;;3.27;;
4377;SDS011;2203;53.686;9.994;2022-09-17T05:54:14;28.40;;;4.43;;
4377;SDS011;2203;53.686;9.994;2022-09-17T05:56:39;22.00;;;2.83;;
4377;SDS011;2203;53.686;9.994;2022-09-17T05:59:05;24.00;;;3.10;;
4377;SDS011;2203;53.686;9.994;2022-09-17T06:01:30;18.37;;;3.10;;
4377;SDS011;2203;53.686;9.994;2022-09-17T06:03:55;19.60;;;3.10;;
4377;SDS011;2203;53.686;9.994;2022-09-17T06:06:21;19.23;;;2.67;;
4377;SDS011;2203;53.686;9.994;2022-09-17T06:08:46;23.23;;;3.00;;
4377;SDS011;2203;53.686;9.994;2022-09-17T06:11:12;21.63;;;2.87;;
4377;SDS011;2203;53.686;9.994;2022-09-17T06:13:37;20.03;;;4.00;;
4377;SDS011;2203;53.686;9.994;2022-09-17T06:16:02;26.07;;;3.50;;
4377;SDS011;2203;53.686;9.994;2022-09-17T06:18:28;29.10;;;3.40;;
4377;SDS011;2203;53.686;9.994;2022-09-17T06:20:55;16.33;;;3.60;;
4377;SDS011;2203;53.686;9.994;2022-09-17T06:23:22;16.87;;;2.60;;
4377;SDS011;2203;53.686;9.994;2022-09-17T06:25:52;28.40;;;2.60;;
4377;SDS011;2203;53.686;9.994;2022-09-17T06:28:17;19.23;;;3.73;;
4377;SDS011;2203;53.686;9.994;2022-09-17T06:30:43;17.13;;;3.07;;
4377;SDS011;2203;53.686;9.994;2022-09-17T06:33:08;16.20;;;2.87;;
4377;SDS011;2203;53.686;9.994;2022-09-17T06:35:34;21.60;;;3.13;;
4377;SDS011;2203;53.686;9.994;2022-09-17T06:37:59;17.97;;;3.10;;
4377;SDS011;2203;53.686;9.994;2022-09-17T06:40:24;21.07;;;3.00;;
4377;SDS011;2203;53.686;9.994;2022-09-17T06:42:53;20.90;;;4.60;;
4377;SDS011;2203;53.686;9.994;2022-09-17T06:45:21;12.90;;;2.10;;
4377;SDS011;2203;53.686;9.994;2022-09-17T06:47:47;12.70;;;3.50;;
4377;SDS011;2203;53.686;9.994;2022-09-17T06:50:12;12.70;;;2.23;;
4377;SDS011;2203;53.686;9.994;2022-09-17T06:52:37;16.53;;;2.73;;
4377;SDS011;2203;53.686;9.994;2022-09-17T06:55:03;15.93;;;2.50;;
4377;SDS011;2203;53.686;9.994;2022-09-17T06:57:29;14.00;;;2.60;;
4377;SDS011;2203;53.686;9.994;2022-09-17T06:59:54;15.43;;;2.20;;
4377;SDS011;2203;53.686;9.994;2022-09-17T07:02:19;16.13;;;2.30;;
4377;SDS011;2203;53.686;9.994;2022-09-17T07:04:45;16.63;;;1.70;;
4377;SDS011;2203;53.686;9.994;2022-09-17T07:07:10;11.13;;;2.10;;
4377;SDS011;2203;53.686;9.994;2022-09-17T07:09:36;13.53;;;2.30;;
4377;SDS011;2203;53.686;9.994;2022-09-17T07:12:05;12.53;;;2.87;;
4377;SDS011;2203;53.686;9.994;2022-09-17T07:14:31;11.17;;;2.27;;
4377;SDS011;2203;53.686;9.994;2022-09-17T07:16:56;9.50;;;1.20;;
4377;SDS011;2203;53.686;9.994;2022-09-17T07:19:22;13.97;;;1.73;;
4377;SDS011;2203;53.686;9.994;2022-09-17T07:21:47;12.73;;;1.67;;
4377;SDS011;2203;53.686;9.994;2022-09-17T07:24:13;6.70;;;1.80;;
4377;SDS011;2203;53.686;9.994;2022-09-17T07:26:38;6.10;;;1.10;;
4377;SDS011;2203;53.686;9.994;2022-09-17T07:29:04;11.43;;;1.70;;
4377;SDS011;2203;53.686;9.994;2022-09-17T07:31:29;14.93;;;1.80;;
4377;SDS011;2203;53.686;9.994;2022-09-17T07:33:55;12.43;;;1.60;;
4377;SDS011;2203;53.686;9.994;2022-09-17T07:36:20;15.37;;;1.80;;
4377;SDS011;2203;53.686;9.994;2022-09-17T07:38:46;9.23;;;1.30;;
4377;SDS011;2203;53.686;9.994;2022-09-17T07:41:13;9.23;;;1.80;;
4377;SDS011;2203;53.686;9.994;2022-09-17T07:43:40;11.07;;;1.53;;
4377;SDS011;2203;53.686;9.994;2022-09-17T07:46:06;6.07;;;1.50;;
4377;SDS011;2203;53.686;9.994;2022-09-17T07:48:32;10.63;;;1.97;;
4377;SDS011;2203;53.686;9.994;2022-09-17T07:50:58;11.30;;;2.10;;
4377;SDS011;2203;53.686;9.994;2022-09-17T07:53:24;10.07;;;1.37;;
4377;SDS011;2203;53.686;9.994;2022-09-17T07:55:50;15.10;;;1.77;;
4377;SDS011;2203;53.686;9.994;2022-09-17T07:58:20;7.50;;;1.73;;
4377;SDS011;2203;53.686;9.994;2022-09-17T08:00:46;8.80;;;1.73;;
4377;SDS011;2203;53.686;9.994;2022-09-17T08:03:12;5.43;;;1.10;;
4377;SDS011;2203;53.686;9.994;2022-09-17T08:05:38;10.43;;;1.47;;
4377;SDS011;2203;53.686;9.994;2022-09-17T08:08:03;10.50;;;1.93;;
4377;SDS011;2203;53.686;9.994;2022-09-17T08:10:28;7.90;;;1.67;;
4377;SDS011;2203;53.686;9.994;2022-09-17T08:12:55;9.67;;;1.40;;
4377;SDS011;2203;53.686;9.994;2022-09-17T08:15:21;9.17;;;2.40;;
4377;SDS011;2203;53.686;9.994;2022-09-17T08:17:48;14.43;;;2.23;;
4377;SDS011;2203;53.686;9.994;2022-09-17T08:20:14;11.70;;;1.50;;
4377;SDS011;2203;53.686;9.994;2022-09-17T08:22:40;11.97;;;1.50;;
4377;SDS011;2203;53.686;9.994;2022-09-17T08:25:06;9.47;;;1.50;;
4377;SDS011;2203;53.686;9.994;2022-09-17T08:27:33;22.43;;;2.10;;
4377;SDS011;2203;53.686;9.994;2022-09-17T08:29:59;13.53;;;1.77;;
4377;SDS011;2203;53.686;9.994;2022-09-17T08:32:25;19.53;;;1.83;;
4377;SDS011;2203;53.686;9.994;2022-09-17T08:34:52;11.90;;;2.50;;
4377;SDS011;2203;53.686;9.994;2022-09-17T08:37:18;33.07;;;2.20;;
4377;SDS011;2203;53.686;9.994;2022-09-17T08:39:44;11.70;;;2.10;;
4377;SDS011;2203;53.686;9.994;2022-09-17T08:44:45;11.80;;;1.60;;
4377;SDS011;2203;53.686;9.994;2022-09-17T08:47:25;24.40;;;2.20;;
4377;SDS011;2203;53.686;9.994;2022-09-17T08:49:54;14.87;;;2.00;;
4377;SDS011;2203;53.686;9.994;2022-09-17T09:06:20;16.03;;;1.90;;
4377;SDS011;2203;53.686;9.994;2022-09-17T09:08:49;10.07;;;1.67;;
4377;SDS011;2203;53.686;9.994;2022-09-17T09:11:22;11.00;;;2.27;;
4377;SDS011;2203;53.686;9.994;2022-09-17T09:13:52;13.73;;;2.07;;
4377;SDS011;2203;53.686;9.994;2022-09-17T09:16:21;18.73;;;1.87;;
4377;SDS011;2203;53.686;9.994;2022-09-17T09:18:50;8.57;;;1.10;;
4377;SDS011;2203;53.686;9.994;2022-09-17T09:26:23;3.83;;;0.90;;
4377;SDS011;2203;53.686;9.994;2022-09-17T09:29:19;5.40;;;0.80;;
4377;SDS011;2203;53.686;9.994;2022-09-17T09:34:15;2.80;;;0.80;;
4377;SDS011;2203;53.686;9.994;2022-09-17T09:36:41;9.40;;;5.47;;
4377;SDS011;2203;53.686;9.994;2022-09-17T09:39:10;9.57;;;2.20;;
4377;SDS011;2203;53.686;9.994;2022-09-17T09:44:35;2.13;;;0.87;;
4377;SDS011;2203;53.686;9.994;2022-09-17T09:55:27;5.80;;;1.00;;
4377;SDS011;2203;53.686;9.994;2022-09-17T09:57:58;7.73;;;1.20;;
4377;SDS011;2203;53.686;9.994;2022-09-17T10:00:39;6.97;;;1.20;;
4377;SDS011;2203;53.686;9.994;2022-09-17T10:03:20;5.20;;;1.20;;
4377;SDS011;2203;53.686;9.994;2022-09-17T10:08:30;4.87;;;1.20;;
4377;SDS011;2203;53.686;9.994;2022-09-17T10:11:00;7.87;;;1.00;;
4377;SDS011;2203;53.686;9.994;2022-09-17T10:13:31;6.13;;;1.00;;
4377;SDS011;2203;53.686;9.994;2022-09-17T10:18:42;5.67;;;1.30;;
4377;SDS011;2203;53.686;9.994;2022-09-17T10:21:17;4.67;;;1.10;;
4377;SDS011;2203;53.686;9.994;2022-09-17T10:23:47;6.63;;;1.27;;
4377;SDS011;2203;53.686;9.994;2022-09-17T10:26:24;7.50;;;1.40;;
4377;SDS011;2203;53.686;9.994;2022-09-17T10:28:52;7.93;;;1.50;;
4377;SDS011;2203;53.686;9.994;2022-09-17T10:31:19;9.50;;;1.53;;
4377;SDS011;2203;53.686;9.994;2022-09-17T10:33:59;11.80;;;1.43;;
4377;SDS011;2203;53.686;9.994;2022-09-17T10:39:22;5.43;;;1.10;;
4377;SDS011;2203;53.686;9.994;2022-09-17T10:44:30;10.47;;;1.20;;
4377;SDS011;2203;53.686;9.994;2022-09-17T10:52:09;12.43;;;1.60;;
4377;SDS011;2203;53.686;9.994;2022-09-17T10:57:34;9.17;;;1.10;;
4377;SDS011;2203;53.686;9.994;2022-09-17T11:00:10;10.83;;;1.90;;
4377;SDS011;2203;53.686;9.994;2022-09-17T11:07:41;9.93;;;1.57;;
4377;SDS011;2203;53.686;9.994;2022-09-17T11:18:40;9.53;;;1.33;;
4377;SDS011;2203;53.686;9.994;2022-09-17T11:23:45;15.13;;;2.40;;
4377;SDS011;2203;53.686;9.994;2022-09-17T11:29:11;9.57;;;2.43;;
4377;SDS011;2203;53.686;9.994;2022-09-17T11:39:40;10.07;;;1.90;;
4377;SDS011;2203;53.686;9.994;2022-09-17T11:42:09;6.30;;;1.40;;
4377;SDS011;2203;53.686;9.994;2022-09-17T11:44:40;5.00;;;1.10;;
4377;SDS011;2203;53.686;9.994;2022-09-17T11:47:14;4.63;;;1.23;;
4377;SDS011;2203;53.686;9.994;2022-09-17T11:52:20;8.67;;;1.60;;
4377;SDS011;2203;53.686;9.994;2022-09-17T11:57:47;6.20;;;1.20;;
4377;SDS011;2203;53.686;9.994;2022-09-17T12:00:12;9.20;;;1.83;;
4377;SDS011;2203;53.686;9.994;2022-09-17T12:02:44;9.10;;;1.70;;
4377;SDS011;2203;53.686;9.994;2022-09-17T12:05:28;6.20;;;1.83;;
4377;SDS011;2203;53.686;9.994;2022-09-17T12:10:50;11.67;;;2.17;;
4377;SDS011;2203;53.686;9.994;2022-09-17T12:15:47;8.10;;;1.77;;
4377;SDS011;2203;53.686;9.994;2022-09-17T12:20:56;6.90;;;1.60;;
4377;SDS011;2203;53.686;9.994;2022-09-17T12:29:29;11.77;;;2.00;;
4377;SDS011;2203;53.686;9.994;2022-09-17T12:32:34;11.10;;;1.57;;
4377;SDS011;2203;53.686;9.994;2022-09-17T12:40:23;22.83;;;3.20;;
4377;SDS011;2203;53.686;9.994;2022-09-17T12:48:44;16.10;;;2.67;;
4377;SDS011;2203;53.686;9.994;2022-09-17T12:54:05;12.57;;;1.77;;
4377;SDS011;2203;53.686;9.994;2022-09-17T12:56:45;15.90;;;1.73;;
4377;SDS011;2203;53.686;9.994;2022-09-17T12:59:25;11.43;;;2.30;;
4377;SDS011;2203;53.686;9.994;2022-09-17T13:02:01;13.23;;;1.90;;
4377;SDS011;2203;53.686;9.994;2022-09-17T13:07:13;18.30;;;2.83;;
4377;SDS011;2203;53.686;9.994;2022-09-17T13:15:36;6.53;;;1.77;;
4377;SDS011;2203;53.686;9.994;2022-09-17T13:21:00;9.73;;;1.80;;
4377;SDS011;2203;53.686;9.994;2022-09-17T13:23:43;8.30;;;2.90;;
4377;SDS011;2203;53.686;9.994;2022-09-17T13:26:10;5.53;;;1.10;;
4377;SDS011;2203;53.686;9.994;2022-09-17T13:28:42;2.93;;;0.93;;
4377;SDS011;2203;53.686;9.994;2022-09-17T13:31:12;2.77;;;0.93;;
4377;SDS011;2203;53.686;9.994;2022-09-17T13:33:57;3.43;;;1.03;;
4377;SDS011;2203;53.686;9.994;2022-09-17T13:36:37;7.57;;;1.07;;
4377;SDS011;2203;53.686;9.994;2022-09-17T13:39:05;2.83;;;1.00;;
4377;SDS011;2203;53.686;9.994;2022-09-17T13:41:41;6.23;;;1.10;;
4377;SDS011;2203;53.686;9.994;2022-09-17T13:44:08;3.30;;;1.17;;
4377;SDS011;2203;53.686;9.994;2022-09-17T13:46:35;5.87;;;1.40;;
4377;SDS011;2203;53.686;9.994;2022-09-17T13:49:03;2.93;;;0.83;;
4377;SDS011;2203;53.686;9.994;2022-09-17T13:54:00;4.73;;;1.50;;
4377;SDS011;2203;53.686;9.994;2022-09-17T13:56:28;7.83;;;1.53;;
4377;SDS011;2203;53.686;9.994;2022-09-17T13:59:04;10.83;;;1.13;;
4377;SDS011;2203;53.686;9.994;2022-09-17T14:10:39;6.50;;;1.50;;
4377;SDS011;2203;53.686;9.994;2022-09-17T14:18:00;3.40;;;1.60;;
4377;SDS011;2203;53.686;9.994;2022-09-17T14:20:32;8.53;;;1.40;;
4377;SDS011;2203;53.686;9.994;2022-09-17T14:22:59;6.00;;;1.00;;
4377;SDS011;2203;53.686;9.994;2022-09-17T14:25:28;6.47;;;0.90;;
4377;SDS011;2203;53.686;9.994;2022-09-17T14:28:13;2.83;;;0.60;;
4377;SDS011;2203;53.686;9.994;2022-09-17T14:30:46;5.10;;;0.90;;
4377;SDS011;2203;53.686;9.994;2022-09-17T14:35:44;1.47;;;0.67;;
4377;SDS011;2203;53.686;9.994;2022-09-17T14:38:20;3.03;;;0.60;;
4377;SDS011;2203;53.686;9.994;2022-09-17T14:40:56;3.80;;;0.90;;
4377;SDS011;2203;53.686;9.994;2022-09-17T14:44:11;4.27;;;0.80;;
4377;SDS011;2203;53.686;9.994;2022-09-17T14:46:29;1.70;;;0.70;;
4377;SDS011;2203;53.686;9.994;2022-09-17T14:49:17;4.63;;;1.10;;
4377;SDS011;2203;53.686;9.994;2022-09-17T14:51:54;10.23;;;1.57;;
4377;SDS011;2203;53.686;9.994;2022-09-17T14:54:22;11.00;;;1.40;;
4377;SDS011;2203;53.686;9.994;2022-09-17T14:56:57;2.43;;;1.10;;
4377;SDS011;2203;53.686;9.994;2022-09-17T14:59:39;8.00;;;1.80;;
4377;SDS011;2203;53.686;9.994;2022-09-17T15:04:54;11.00;;;1.47;;
4377;SDS011;2203;53.686;9.994;2022-09-17T15:07:20;8.83;;;1.33;;
4377;SDS011;2203;53.686;9.994;2022-09-17T15:09:46;6.20;;;1.20;;
4377;SDS011;2203;53.686;9.994;2022-09-17T15:12:13;8.37;;;1.10;;
4377;SDS011;2203;53.686;9.994;2022-09-17T15:14:41;6.53;;;1.50;;
4377;SDS011;2203;53.686;9.994;2022-09-17T15:17:11;8.10;;;1.37;;
4377;SDS011;2203;53.686;9.994;2022-09-17T15:19:39;6.90;;;1.63;;
4377;SDS011;2203;53.686;9.994;2022-09-17T15:22:17;5.43;;;0.93;;
4377;SDS011;2203;53.686;9.994;2022-09-17T15:32:40;6.00;;;1.10;;
4377;SDS011;2203;53.686;9.994;2022-09-17T15:35:15;4.03;;;1.60;;
4377;SDS011;2203;53.686;9.994;2022-09-17T15:37:47;4.20;;;1.53;;
4377;SDS011;2203;53.686;9.994;2022-09-17T15:40:24;6.10;;;0.97;;
4377;SDS011;2203;53.686;9.994;2022-09-17T15:43:38;5.27;;;1.30;;
4377;SDS011;2203;53.686;9.994;2022-09-17T15:45:47;2.03;;;0.80;;
4377;SDS011;2203;53.686;9.994;2022-09-17T15:50:57;4.43;;;0.93;;
4377;SDS011;2203;53.686;9.994;2022-09-17T15:53:30;3.00;;;0.77;;
4377;SDS011;2203;53.686;9.994;2022-09-17T15:56:07;2.90;;;1.10;;
4377;SDS011;2203;53.686;9.994;2022-09-17T16:06:32;4.63;;;0.90;;
4377;SDS011;2203;53.686;9.994;2022-09-17T16:11:27;3.57;;;1.10;;
4377;SDS011;2203;53.686;9.994;2022-09-17T16:13:55;3.37;;;0.83;;
4377;SDS011;2203;53.686;9.994;2022-09-17T16:16:23;5.37;;;2.30;;
4377;SDS011;2203;53.686;9.994;2022-09-17T16:18:49;3.23;;;1.33;;
4377;SDS011;2203;53.686;9.994;2022-09-17T16:21:15;5.80;;;1.20;;
4377;SDS011;2203;53.686;9.994;2022-09-17T16:23:42;4.23;;;1.10;;
4377;SDS011;2203;53.686;9.994;2022-09-17T16:26:17;6.43;;;0.90;;
4377;SDS011;2203;53.686;9.994;2022-09-17T16:28:46;4.87;;;0.90;;
4377;SDS011;2203;53.686;9.994;2022-09-17T16:31:14;3.77;;;1.03;;
4377;SDS011;2203;53.686;9.994;2022-09-17T16:33:39;3.57;;;1.50;;
4377;SDS011;2203;53.686;9.994;2022-09-17T16:36:05;3.87;;;1.67;;
4377;SDS011;2203;53.686;9.994;2022-09-17T16:38:31;8.00;;;1.10;;
4377;SDS011;2203;53.686;9.994;2022-09-17T16:40:57;4.30;;;0.93;;
4377;SDS011;2203;53.686;9.994;2022-09-17T16:43:22;6.77;;;1.30;;
4377;SDS011;2203;53.686;9.994;2022-09-17T16:45:57;6.80;;;1.10;;
4377;SDS011;2203;53.686;9.994;2022-09-17T16:48:27;5.53;;;1.00;;
4377;SDS011;2203;53.686;9.994;2022-09-17T16:50:52;7.60;;;1.23;;
4377;SDS011;2203;53.686;9.994;2022-09-17T16:53:18;5.33;;;1.07;;
4377;SDS011;2203;53.686;9.994;2022-09-17T16:55:43;3.47;;;1.20;;
4377;SDS011;2203;53.686;9.994;2022-09-17T16:58:08;9.00;;;1.03;;
4377;SDS011;2203;53.686;9.994;2022-09-17T17:00:34;3.60;;;0.90;;
4377;SDS011;2203;53.686;9.994;2022-09-17T17:03:01;2.30;;;0.93;;
4377;SDS011;2203;53.686;9.994;2022-09-17T17:05:27;6.70;;;1.20;;
4377;SDS011;2203;53.686;9.994;2022-09-17T17:07:52;5.23;;;1.17;;
4377;SDS011;2203;53.686;9.994;2022-09-17T17:10:19;6.27;;;1.00;;
4377;SDS011;2203;53.686;9.994;2022-09-17T17:12:45;5.87;;;1.17;;
4377;SDS011;2203;53.686;9.994;2022-09-17T17:15:10;6.20;;;1.30;;
4377;SDS011;2203;53.686;9.994;2022-09-17T17:17:36;9.27;;;1.50;;
4377;SDS011;2203;53.686;9.994;2022-09-17T17:20:02;7.60;;;2.07;;
4377;SDS011;2203;53.686;9.994;2022-09-17T17:22:33;4.23;;;1.93;;
4377;SDS011;2203;53.686;9.994;2022-09-17T17:24:58;10.33;;;1.57;;
4377;SDS011;2203;53.686;9.994;2022-09-17T17:27:24;3.53;;;1.37;;
4377;SDS011;2203;53.686;9.994;2022-09-17T17:29:49;6.07;;;1.10;;
4377;SDS011;2203;53.686;9.994;2022-09-17T17:32:14;16.00;;;6.10;;
4377;SDS011;2203;53.686;9.994;2022-09-17T17:34:40;9.07;;;1.47;;
4377;SDS011;2203;53.686;9.994;2022-09-17T17:37:05;6.70;;;1.23;;
4377;SDS011;2203;53.686;9.994;2022-09-17T17:39:31;8.73;;;2.27;;
4377;SDS011;2203;53.686;9.994;2022-09-17T17:41:56;2.40;;;1.00;;
4377;SDS011;2203;53.686;9.994;2022-09-17T17:44:21;7.70;;;1.40;;
4377;SDS011;2203;53.686;9.994;2022-09-17T17:46:47;6.33;;;1.27;;
4377;SDS011;2203;53.686;9.994;2022-09-17T17:49:12;8.27;;;1.37;;
4377;SDS011;2203;53.686;9.994;2022-09-17T17:51:38;3.07;;;1.23;;
4377;SDS011;2203;53.686;9.994;2022-09-17T17:54:03;4.67;;;1.23;;
4377;SDS011;2203;53.686;9.994;2022-09-17T17:56:28;10.80;;;1.70;;
4377;SDS011;2203;53.686;9.994;2022-09-17T17:58:54;18.30;;;1.90;;
4377;SDS011;2203;53.686;9.994;2022-09-17T18:01:22;6.03;;;1.70;;
4377;SDS011;2203;53.686;9.994;2022-09-17T18:03:49;7.63;;;1.63;;
4377;SDS011;2203;53.686;9.994;2022-09-17T18:06:14;2.67;;;1.20;;
4377;SDS011;2203;53.686;9.994;2022-09-17T18:08:41;6.53;;;1.40;;
4377;SDS011;2203;53.686;9.994;2022-09-17T18:11:08;3.43;;;1.27;;
4377;SDS011;2203;53.686;9.994;2022-09-17T18:13:35;4.40;;;1.20;;
4377;SDS011;2203;53.686;9.994;2022-09-17T18:16:02;5.00;;;1.23;;
4377;SDS011;2203;53.686;9.994;2022-09-17T18:18:32;5.10;;;1.50;;
4377;SDS011;2203;53.686;9.994;2022-09-17T18:21:19;6.57;;;1.70;;
4377;SDS011;2203;53.686;9.994;2022-09-17T18:23:46;12.40;;;1.83;;
4377;SDS011;2203;53.686;9.994;2022-09-17T18:26:16;3.80;;;1.10;;
4377;SDS011;2203;53.686;9.994;2022-09-17T18:28:46;8.63;;;1.50;;
4377;SDS011;2203;53.686;9.994;2022-09-17T18:31:22;4.90;;;1.40;;
4377;SDS011;2203;53.686;9.994;2022-09-17T18:33:48;12.50;;;3.93;;
4377;SDS011;2203;53.686;9.994;2022-09-17T18:36:15;8.80;;;2.23;;
4377;SDS011;2203;53.686;9.994;2022-09-17T18:38:41;7.50;;;2.40;;
4377;SDS011;2203;53.686;9.994;2022-09-17T18:41:08;5.80;;;1.60;;
4377;SDS011;2203;53.686;9.994;2022-09-17T18:43:35;3.90;;;1.40;;
4377;SDS011;2203;53.686;9.994;2022-09-17T18:46:01;5.50;;;1.33;;
4377;SDS011;2203;53.686;9.994;2022-09-17T18:48:27;6.47;;;1.60;;
4377;SDS011;2203;53.686;9.994;2022-09-17T18:50:54;7.60;;;2.20;;
4377;SDS011;2203;53.686;9.994;2022-09-17T18:53:27;8.83;;;2.20;;
4377;SDS011;2203;53.686;9.994;2022-09-17T18:55:53;7.30;;;2.07;;
4377;SDS011;2203;53.686;9.994;2022-09-17T18:58:20;3.70;;;1.40;;